Time;durP1;ratioP1;P1;durP2;ratioP2;P2;SDS_P1;SDS_P2;PMS_P1;PMS_P2;Temp;Humidity;BMP_temperature;BMP_pressure;BME280_temperature;BME280_humidity;BME280_pressure;Samples;Min_cycle;Max_cycle;Signal;HPM_P1;HPM_P2
2021/07/22 00:02:18;;;;;;;18.10;11.52;;;20.50;69.00;;;;;;5120383;28;20052;-77
2021/07/22 00:04:44;;;;;;;18.58;11.55;;;20.40;69.40;;;;;;5121458;28;20027;-76
2021/07/22 00:07:10;;;;;;;16.63;11.50;;;20.30;69.70;;;;;;5120907;28;20025;-77
2021/07/22 00:09:35;;;;;;;16.00;11.45;;;20.30;70.00;;;;;;5091644;28;20111;-76
2021/07/22 00:12:01;;;;;;;16.38;10.63;;;20.20;70.30;;;;;;5099957;28;20026;-76
2021/07/22 00:14:29;;;;;;;14.68;11.00;;;20.20;70.50;;;;;;5098673;28;20063;-76
2021/07/22 00:16:55;;;;;;;18.80;11.68;;;20.10;70.70;;;;;;5081870;28;20036;-76
2021/07/22 00:19:20;;;;;;;16.30;10.85;;;20.00;71.00;;;;;;5097782;28;20028;-76
2021/07/22 00:21:46;;;;;;;14.73;10.55;;;20.00;71.30;;;;;;5097905;28;20040;-76
2021/07/22 00:24:12;;;;;;;15.60;11.48;;;19.90;71.70;;;;;;5098778;28;20448;-75
2021/07/22 00:26:38;;;;;;;15.27;10.75;;;19.80;72.00;;;;;;5098417;28;20036;-76
2021/07/22 00:29:04;;;;;;;13.82;10.95;;;19.70;72.30;;;;;;5099181;28;20032;-77
2021/07/22 00:31:29;;;;;;;12.25;10.18;;;19.70;72.50;;;;;;5098515;28;20088;-77
2021/07/22 00:33:55;;;;;;;15.95;10.75;;;19.60;73.10;;;;;;5099887;28;20042;-76
2021/07/22 00:36:21;;;;;;;16.88;12.13;;;19.60;73.00;;;;;;5077644;28;20042;-76
2021/07/22 00:38:49;;;;;;;18.63;12.68;;;19.50;73.10;;;;;;5078700;28;20035;-76
2021/07/22 00:41:15;;;;;;;18.58;13.07;;;19.50;73.20;;;;;;5095923;28;20078;-77
2021/07/22 00:43:41;;;;;;;18.52;12.23;;;19.50;73.40;;;;;;5078515;28;20028;-77
2021/07/22 00:46:08;;;;;;;16.83;13.10;;;19.50;73.60;;;;;;5095651;28;20059;-79
2021/07/22 00:48:34;;;;;;;23.80;13.20;;;19.40;73.60;;;;;;5094607;28;20032;-77
2021/07/22 00:50:59;;;;;;;20.17;12.52;;;19.40;73.70;;;;;;5078531;28;20024;-76
2021/07/22 00:53:25;;;;;;;18.50;13.05;;;19.30;73.90;;;;;;5096676;28;20028;-75
2021/07/22 00:55:51;;;;;;;14.18;12.63;;;19.30;74.10;;;;;;5096053;28;20081;-77
2021/07/22 00:58:16;;;;;;;17.40;13.70;;;19.30;74.30;;;;;;5095765;28;20100;-77
2021/07/22 01:00:42;;;;;;;19.90;13.07;;;19.30;74.60;;;;;;5077886;28;20078;-77
2021/07/22 01:03:08;;;;;;;22.60;13.30;;;19.10;74.90;;;;;;5094684;28;20475;-77
2021/07/22 01:05:33;;;;;;;17.92;13.35;;;19.10;75.30;;;;;;5094586;28;20039;-76
2021/07/22 01:07:59;;;;;;;19.23;13.95;;;19.00;75.50;;;;;;5078250;28;20026;-76
2021/07/22 01:10:25;;;;;;;19.67;12.82;;;19.00;75.70;;;;;;5096386;28;20103;-77
2021/07/22 01:12:50;;;;;;;18.58;13.93;;;19.00;76.00;;;;;;5094792;28;20020;-78
2021/07/22 01:15:16;;;;;;;18.02;14.20;;;18.90;76.20;;;;;;5094739;28;20055;-77
2021/07/22 01:17:47;;;;;;;20.70;13.48;;;18.90;76.50;;;;;;5077729;28;20119;-76
2021/07/22 01:20:16;;;;;;;20.58;14.15;;;18.80;76.70;;;;;;5094322;28;20081;-78
2021/07/22 01:22:43;;;;;;;18.10;13.77;;;18.80;76.90;;;;;;5095220;28;20052;-77
2021/07/22 01:25:09;;;;;;;19.73;13.55;;;18.80;77.10;;;;;;5094172;28;20028;-79
2021/07/22 01:27:36;;;;;;;16.50;12.82;;;18.70;77.20;;;;;;5093817;28;20115;-82
2021/07/22 01:30:02;;;;;;;21.15;13.68;;;18.70;77.30;;;;;;5094404;28;20393;-77
2021/07/22 01:32:27;;;;;;;21.00;13.77;;;18.70;77.40;;;;;;5095648;28;20030;-77
2021/07/22 01:34:53;;;;;;;20.23;14.50;;;18.70;77.50;;;;;;5094279;28;20025;-77
2021/07/22 01:37:19;;;;;;;20.63;14.68;;;18.70;77.70;;;;;;5093471;28;20521;-77
2021/07/22 01:39:44;;;;;;;21.35;14.70;;;18.60;77.90;;;;;;5093712;28;20508;-76
2021/07/22 01:42:10;;;;;;;16.25;13.45;;;18.60;78.20;;;;;;5060204;28;20032;-79
2021/07/22 01:44:36;;;;;;;20.35;14.23;;;18.50;78.50;;;;;;5060608;28;20020;-76
2021/07/22 01:47:05;;;;;;;19.35;13.52;;;18.40;78.70;;;;;;5094974;28;20035;-76
2021/07/22 01:49:31;;;;;;;23.40;14.63;;;18.40;79.10;;;;;;5094929;28;20088;-76
2021/07/22 01:51:59;;;;;;;17.13;13.82;;;18.30;79.30;;;;;;5094641;28;20480;-76
2021/07/22 01:54:24;;;;;;;21.73;14.60;;;18.30;79.60;;;;;;5077848;28;20024;-77
2021/07/22 01:56:50;;;;;;;20.10;14.75;;;18.30;79.80;;;;;;5077298;28;20039;-77
2021/07/22 01:59:16;;;;;;;20.90;13.77;;;18.30;79.90;;;;;;5076422;28;20032;-77
2021/07/22 02:01:41;;;;;;;20.02;14.63;;;18.30;80.10;;;;;;5077434;28;20036;-76
2021/07/22 02:04:07;;;;;;;20.50;14.68;;;18.30;80.30;;;;;;5095748;28;20377;-76
2021/07/22 02:06:32;;;;;;;20.10;14.07;;;18.30;80.90;;;;;;5061643;28;20027;-76
2021/07/22 02:08:58;;;;;;;18.15;13.77;;;18.30;80.70;;;;;;5084413;28;20035;-76
2021/07/22 02:11:24;;;;;;;19.00;14.38;;;18.20;80.90;;;;;;5085074;28;20051;-76
2021/07/22 02:13:50;;;;;;;16.77;13.40;;;18.20;81.10;;;;;;5101145;28;20024;-76
2021/07/22 02:16:16;;;;;;;17.65;13.55;;;18.10;81.30;;;;;;5083229;28;20051;-81
2021/07/22 02:18:42;;;;;;;20.65;13.05;;;18.10;81.70;;;;;;5095889;28;20032;-77
2021/07/22 02:21:10;;;;;;;19.25;13.35;;;18.00;82.10;;;;;;5094488;28;20058;-77
2021/07/22 02:23:36;;;;;;;19.15;13.50;;;18.00;82.40;;;;;;5092646;28;20044;-76
2021/07/22 02:26:05;;;;;;;17.25;13.40;;;18.00;82.70;;;;;;5093212;28;20115;-77
2021/07/22 02:28:31;;;;;;;18.98;13.70;;;17.90;82.90;;;;;;5093114;28;20026;-77
2021/07/22 02:30:57;;;;;;;18.67;14.20;;;17.80;83.10;;;;;;5094189;28;20032;-77
2021/07/22 02:33:23;;;;;;;16.88;13.80;;;17.80;83.30;;;;;;5092764;28;20115;-77
2021/07/22 02:35:49;;;;;;;19.35;13.63;;;17.70;83.30;;;;;;5092940;28;20119;-77
2021/07/22 02:38:14;;;;;;;19.67;13.23;;;17.70;83.40;;;;;;5094180;28;20054;-80
2021/07/22 02:40:40;;;;;;;18.83;14.55;;;17.70;83.50;;;;;;5075865;28;20480;-77
2021/07/22 02:43:06;;;;;;;19.30;13.48;;;17.70;83.50;;;;;;5094349;28;20020;-76
2021/07/22 02:45:32;;;;;;;19.10;13.52;;;17.70;83.60;;;;;;5094015;28;20028;-77
2021/07/22 02:47:58;;;;;;;17.60;13.43;;;17.80;83.70;;;;;;5092195;28;20103;-76
2021/07/22 02:50:23;;;;;;;16.48;13.35;;;17.80;83.70;;;;;;5075743;28;20039;-77
2021/07/22 02:52:49;;;;;;;19.45;14.30;;;17.80;83.70;;;;;;5092274;28;20516;-77
2021/07/22 02:55:15;;;;;;;20.73;14.18;;;17.70;83.80;;;;;;5075718;28;20491;-77
2021/07/22 02:57:41;;;;;;;18.65;14.40;;;17.70;83.90;;;;;;5076413;28;20123;-77
2021/07/22 03:00:07;;;;;;;21.15;14.10;;;17.60;84.00;;;;;;5092628;28;20036;-76
2021/07/22 03:02:33;;;;;;;19.15;14.65;;;17.60;84.10;;;;;;5093747;28;20031;-77
2021/07/22 03:05:00;;;;;;;19.80;13.95;;;17.60;84.20;;;;;;5092352;28;20020;-76
2021/07/22 03:07:26;;;;;;;22.75;13.90;;;17.60;84.00;;;;;;5075692;28;20059;-76
2021/07/22 03:09:51;;;;;;;17.98;13.82;;;17.70;84.00;;;;;;5092352;28;20521;-76
2021/07/22 03:12:17;;;;;;;19.33;14.65;;;17.70;84.00;;;;;;5092769;28;20028;-76
2021/07/22 03:14:43;;;;;;;22.00;15.15;;;17.70;83.90;;;;;;5092375;28;20471;-76
2021/07/22 03:17:08;;;;;;;21.77;15.25;;;17.70;83.90;;;;;;5093274;28;20028;-75
2021/07/22 03:19:34;;;;;;;20.02;14.30;;;17.60;83.90;;;;;;5058575;28;20368;-76
2021/07/22 03:22:00;;;;;;;20.63;15.23;;;17.60;84.00;;;;;;5091787;28;20052;-76
2021/07/22 03:24:25;;;;;;;18.70;14.43;;;17.50;84.00;;;;;;5093151;28;20024;-77
2021/07/22 03:26:54;;;;;;;21.25;16.15;;;17.40;84.00;;;;;;5092117;28;20054;-75
2021/07/22 03:29:19;;;;;;;20.65;15.65;;;17.40;84.10;;;;;;5092212;28;20028;-76
2021/07/22 03:31:45;;;;;;;21.83;16.55;;;17.30;84.20;;;;;;5092201;28;20032;-75
2021/07/22 03:34:11;;;;;;;21.70;16.10;;;17.20;84.30;;;;;;5075132;28;20487;-75
2021/07/22 03:36:37;;;;;;;21.10;15.50;;;17.20;84.40;;;;;;5092085;28;20047;-76
2021/07/22 03:39:03;;;;;;;23.88;16.70;;;17.20;84.80;;;;;;5075157;28;20472;-75
2021/07/22 03:41:28;;;;;;;24.58;17.58;;;17.20;84.30;;;;;;5091492;28;20024;-76
2021/07/22 03:43:54;;;;;;;22.05;15.68;;;17.10;84.30;;;;;;5075129;28;20020;-76
2021/07/22 03:46:20;;;;;;;23.20;16.40;;;17.10;84.50;;;;;;5074986;28;20127;-75
2021/07/22 03:48:45;;;;;;;20.52;16.67;;;17.10;84.50;;;;;;5074851;28;20128;-76
2021/07/22 03:51:11;;;;;;;22.10;16.15;;;17.10;84.60;;;;;;5091807;28;20127;-76
2021/07/22 03:53:37;;;;;;;20.73;16.45;;;17.10;84.90;;;;;;5074644;28;20040;-76
2021/07/22 03:56:03;;;;;;;22.95;15.85;;;17.10;84.90;;;;;;5074729;28;20047;-75
2021/07/22 03:58:28;;;;;;;19.75;15.80;;;17.10;85.00;;;;;;5092492;28;20109;-77
2021/07/22 04:00:57;;;;;;;19.90;15.73;;;17.10;85.00;;;;;;5095126;28;20114;-76
2021/07/22 04:03:23;;;;;;;22.30;15.90;;;17.10;84.90;;;;;;5094970;28;20027;-75
2021/07/22 04:05:49;;;;;;;23.17;16.02;;;17.20;84.90;;;;;;5095400;28;20024;-76
2021/07/22 04:08:15;;;;;;;21.83;15.90;;;17.20;84.80;;;;;;5095910;28;20055;-76
2021/07/22 04:10:40;;;;;;;21.58;15.77;;;17.30;84.70;;;;;;5095908;28;20040;-76
2021/07/22 04:13:06;;;;;;;21.83;15.35;;;17.30;84.70;;;;;;5078533;28;20028;-75
2021/07/22 04:15:32;;;;;;;21.73;15.65;;;17.30;84.60;;;;;;5077979;28;20035;-77
2021/07/22 04:17:59;;;;;;;25.75;15.30;;;17.40;84.70;;;;;;5095157;28;20032;-76
2021/07/22 04:20:26;;;;;;;21.20;15.20;;;17.40;84.70;;;;;;5096026;28;20021;-76
2021/07/22 04:22:53;;;;;;;19.45;15.10;;;17.40;84.70;;;;;;5095841;28;20056;-77
2021/07/22 04:25:18;;;;;;;21.73;15.40;;;17.50;84.70;;;;;;5078220;28;20059;-76
2021/07/22 04:27:44;;;;;;;21.00;14.85;;;17.50;84.70;;;;;;5096116;28;20394;-76
2021/07/22 04:30:10;;;;;;;19.65;16.30;;;17.70;84.50;;;;;;5096337;28;20032;-77
2021/07/22 04:32:36;;;;;;;22.30;15.55;;;17.90;84.00;;;;;;5077879;28;20024;-76
2021/07/22 04:35:03;;;;;;;23.00;14.85;;;18.10;83.50;;;;;;5094707;28;20081;-76
2021/07/22 04:37:29;;;;;;;24.55;16.17;;;18.50;82.60;;;;;;5094799;28;20051;-80
2021/07/22 04:39:54;;;;;;;24.13;15.85;;;18.90;81.50;;;;;;5060879;28;20059;-76
2021/07/22 04:42:20;;;;;;;19.40;14.85;;;19.20;80.50;;;;;;5094449;28;20028;-76
2021/07/22 04:44:45;;;;;;;20.08;14.40;;;19.20;80.30;;;;;;5094052;28;20020;-75
2021/07/22 04:47:11;;;;;;;20.77;15.35;;;19.20;80.30;;;;;;5079106;28;20024;-76
2021/07/22 04:49:37;;;;;;;17.70;15.15;;;19.00;80.70;;;;;;5097075;28;20028;-76
2021/07/22 04:52:02;;;;;;;20.95;15.40;;;18.90;81.10;;;;;;5094240;28;20467;-76
2021/07/22 04:54:28;;;;;;;20.08;15.40;;;18.80;81.50;;;;;;5096271;28;20028;-75
2021/07/22 04:56:54;;;;;;;23.08;15.80;;;18.80;81.70;;;;;;5095070;28;20032;-76
2021/07/22 04:59:19;;;;;;;20.90;15.48;;;18.90;81.80;;;;;;5095236;28;20040;-77
2021/07/22 05:01:45;;;;;;;24.38;16.02;;;18.90;81.80;;;;;;5094848;28;20491;-75
2021/07/22 05:04:17;;;;;;;21.88;16.02;;;19.00;81.80;;;;;;5094061;28;20120;-77
2021/07/22 05:06:44;;;;;;;24.92;17.92;;;19.20;81.70;;;;;;5094408;28;20491;-75
2021/07/22 05:09:09;;;;;;;23.40;17.42;;;20.00;80.20;;;;;;5095358;28;20020;-75
2021/07/22 05:11:35;;;;;;;21.95;17.67;;;20.50;78.40;;;;;;5094029;28;20040;-78
2021/07/22 05:14:01;;;;;;;22.52;17.85;;;20.40;77.90;;;;;;5093868;28;20397;-76
2021/07/22 05:16:26;;;;;;;25.75;18.35;;;20.20;77.90;;;;;;5094868;28;20036;-75
2021/07/22 05:18:52;;;;;;;24.98;20.13;;;20.30;77.70;;;;;;5093915;28;20039;-75
2021/07/22 05:21:19;;;;;;;26.30;19.67;;;20.10;77.50;;;;;;5077209;28;20082;-75
2021/07/22 05:23:45;;;;;;;27.50;19.85;;;20.00;77.40;;;;;;5093583;28;20048;-75
2021/07/22 05:26:10;;;;;;;27.17;20.45;;;20.00;77.20;;;;;;5094777;28;20042;-76
2021/07/22 05:28:40;;;;;;;23.75;19.30;;;20.00;77.20;;;;;;5093936;28;20016;-81
2021/07/22 05:31:06;;;;;;;26.92;20.60;;;20.10;76.90;;;;;;5094658;28;20067;-76
2021/07/22 05:33:33;;;;;;;28.70;21.70;;;20.20;76.40;;;;;;5093885;28;20491;-77
2021/07/22 05:36:06;;;;;;;31.10;22.27;;;20.30;76.10;;;;;;5093381;28;20487;-76
2021/07/22 05:38:37;;;;;;;30.33;23.48;;;20.40;75.90;;;;;;5093653;28;20028;-77
2021/07/22 05:41:07;;;;;;;31.95;24.05;;;20.70;75.30;;;;;;5094560;28;20063;-77
2021/07/22 05:43:33;;;;;;;30.10;23.15;;;21.70;73.50;;;;;;5077090;28;20484;-75
2021/07/22 05:45:59;;;;;;;33.88;22.83;;;22.50;71.00;;;;;;5093565;28;20023;-76
2021/07/22 05:48:25;;;;;;;31.08;23.00;;;23.10;69.60;;;;;;5095348;28;20513;-77
2021/07/22 05:50:51;;;;;;;27.73;22.20;;;24.00;67.50;;;;;;5093368;28;20028;-77
2021/07/22 05:53:18;;;;;;;31.90;22.70;;;24.70;65.20;;;;;;5095404;28;20329;-77
2021/07/22 05:55:44;;;;;;;27.63;21.30;;;24.60;65.00;;;;;;5094747;28;20024;-75
2021/07/22 05:58:10;;;;;;;26.08;21.90;;;24.30;65.00;;;;;;5093148;28;20518;-75
2021/07/22 06:00:37;;;;;;;27.63;22.10;;;24.30;65.20;;;;;;5094489;28;20032;-78
2021/07/22 06:03:06;;;;;;;28.67;20.52;;;24.90;64.10;;;;;;5093494;28;20055;-75
2021/07/22 06:05:33;;;;;;;29.20;21.33;;;25.40;63.00;;;;;;5093174;28;20016;-77
2021/07/22 06:08:01;;;;;;;27.08;22.17;;;25.90;61.70;;;;;;5093559;28;20024;-76
2021/07/22 06:10:27;;;;;;;28.13;22.33;;;26.00;61.30;;;;;;5093297;28;20030;-75
2021/07/22 06:12:54;;;;;;;28.05;22.55;;;26.30;60.60;;;;;;5075952;28;20024;-76
2021/07/22 06:15:20;;;;;;;27.50;22.00;;;26.90;59.70;;;;;;5094435;28;20024;-76
2021/07/22 06:17:46;;;;;;;28.17;21.60;;;27.40;58.30;;;;;;5093005;28;20380;-76
2021/07/22 06:20:12;;;;;;;26.75;22.27;;;27.90;56.90;;;;;;5092856;28;20020;-76
2021/07/22 06:22:38;;;;;;;29.13;21.98;;;28.20;55.70;;;;;;5093501;28;20047;-76
2021/07/22 06:25:06;;;;;;;29.88;21.88;;;28.60;54.90;;;;;;5076098;28;20081;-76
2021/07/22 06:27:32;;;;;;;32.03;23.58;;;28.80;53.90;;;;;;5092714;28;20032;-76
2021/07/22 06:30:02;;;;;;;31.17;23.08;;;28.70;53.40;;;;;;5092742;28;20020;-76
2021/07/22 06:32:27;;;;;;;27.92;22.20;;;28.90;53.40;;;;;;5075432;28;20032;-75
2021/07/22 06:34:53;;;;;;;30.80;22.65;;;29.20;52.90;;;;;;5092505;28;20150;-76
2021/07/22 06:37:19;;;;;;;29.98;22.70;;;29.40;52.10;;;;;;5093543;28;20070;-79
2021/07/22 06:39:45;;;;;;;25.08;21.20;;;29.60;51.60;;;;;;5093740;28;20035;-76
2021/07/22 06:42:10;;;;;;;25.67;22.20;;;29.70;52.10;;;;;;5092856;28;20031;-76
2021/07/22 06:44:36;;;;;;;27.33;21.55;;;29.90;50.80;;;;;;5075927;28;20452;-75
2021/07/22 06:47:02;;;;;;;25.55;21.50;;;30.00;51.00;;;;;;5092307;28;20024;-77
2021/07/22 06:49:28;;;;;;;28.35;22.42;;;30.20;50.30;;;;;;5092930;28;20024;-76
2021/07/22 06:51:53;;;;;;;23.35;20.85;;;30.50;50.00;;;;;;5093398;28;20482;-76
2021/07/22 06:54:20;;;;;;;24.58;21.98;;;30.70;49.40;;;;;;5092372;28;20111;-76
2021/07/22 06:56:46;;;;;;;26.25;22.05;;;30.90;49.00;;;;;;5093494;28;20021;-78
2021/07/22 06:59:12;;;;;;;28.23;23.70;;;31.10;48.60;;;;;;5094300;28;20028;-77
2021/07/22 07:01:37;;;;;;;26.15;22.45;;;31.20;48.10;;;;;;5092113;28;20456;-77
2021/07/22 07:04:04;;;;;;;27.50;23.13;;;31.10;47.40;;;;;;5092791;28;20035;-83
2021/07/22 07:06:30;;;;;;;27.33;22.92;;;31.00;47.80;;;;;;5075450;28;20061;-77
2021/07/22 07:08:56;;;;;;;25.98;22.52;;;31.10;48.10;;;;;;5092342;28;20016;-77
2021/07/22 07:11:21;;;;;;;25.92;20.92;;;31.50;47.30;;;;;;5093191;28;20494;-77
2021/07/22 07:13:47;;;;;;;26.88;21.65;;;31.90;46.60;;;;;;5092331;28;20032;-85
2021/07/22 07:16:12;;;;;;;25.50;20.50;;;32.10;46.30;;;;;;5092239;28;20043;-77
2021/07/22 07:18:38;;;;;;;23.48;20.02;;;32.40;45.50;;;;;;5075772;28;20032;-75
2021/07/22 07:21:04;;;;;;;24.40;19.60;;;32.70;44.50;;;;;;5092043;28;20020;-76
2021/07/22 07:23:32;;;;;;;38.47;24.42;;;32.80;44.20;;;;;;5093565;28;20056;-76
2021/07/22 07:25:57;;;;;;;28.52;21.00;;;32.90;44.10;;;;;;5075288;28;20063;-76
2021/07/22 07:28:23;;;;;;;27.08;19.35;;;33.00;44.00;;;;;;5074932;28;20058;-77
2021/07/22 07:30:49;;;;;;;22.45;19.35;;;33.10;43.80;;;;;;5091573;28;20108;-83
2021/07/22 07:33:15;;;;;;;26.42;20.55;;;33.30;43.30;;;;;;5094407;28;20464;-76
2021/07/22 07:35:41;;;;;;;25.75;21.30;;;33.30;43.40;;;;;;5096119;28;20028;-76
2021/07/22 07:38:06;;;;;;;22.67;19.75;;;33.20;43.50;;;;;;5095893;28;20036;-77
2021/07/22 07:40:32;;;;;;;24.20;20.40;;;33.10;44.10;;;;;;5097662;28;20361;-76
2021/07/22 07:42:58;;;;;;;23.33;20.92;;;32.90;44.30;;;;;;5096940;28;20032;-75
2021/07/22 07:45:25;;;;;;;22.58;18.73;;;32.80;44.50;;;;;;5079329;28;20461;-78
2021/07/22 07:47:51;;;;;;;22.48;17.83;;;32.80;44.50;;;;;;5096627;28;20036;-83
2021/07/22 07:50:17;;;;;;;22.08;17.40;;;32.90;44.60;;;;;;5095713;28;20487;-76
2021/07/22 07:52:43;;;;;;;24.10;18.92;;;33.00;44.30;;;;;;5096498;28;20032;-77
2021/07/22 07:55:09;;;;;;;18.90;16.90;;;33.10;44.20;;;;;;5097297;28;20109;-77
2021/07/22 07:57:35;;;;;;;21.05;18.33;;;33.20;43.90;;;;;;5078652;28;20051;-77
2021/07/22 08:00:01;;;;;;;18.50;15.65;;;33.30;43.90;;;;;;5095615;28;20479;-77
2021/07/22 08:02:27;;;;;;;17.83;16.05;;;33.40;43.60;;;;;;5095453;28;20388;-76
2021/07/22 08:04:55;;;;;;;21.52;16.52;;;33.40;43.70;;;;;;5095357;28;20059;-81
2021/07/22 08:07:21;;;;;;;17.67;15.93;;;33.30;43.40;;;;;;5079527;28;20059;-77
2021/07/22 08:09:47;;;;;;;19.95;15.10;;;33.40;43.40;;;;;;5095589;28;20074;-77
2021/07/22 08:12:13;;;;;;;17.27;15.38;;;33.50;43.60;;;;;;5095801;28;20020;-76
2021/07/22 08:14:38;;;;;;;18.55;15.82;;;33.50;43.30;;;;;;5095056;28;20034;-76
2021/07/22 08:17:07;;;;;;;19.20;14.50;;;33.60;43.10;;;;;;5096705;28;20032;-75
2021/07/22 08:19:34;;;;;;;18.90;15.25;;;33.70;43.20;;;;;;5096208;28;20031;-75
2021/07/22 08:22:00;;;;;;;18.17;15.90;;;33.90;43.10;;;;;;5096480;28;20490;-76
2021/07/22 08:24:25;;;;;;;17.42;14.55;;;34.00;42.70;;;;;;5097421;28;20044;-75
2021/07/22 08:26:51;;;;;;;15.68;14.00;;;34.00;42.60;;;;;;5095456;28;20020;-79
2021/07/22 08:29:17;;;;;;;15.32;12.65;;;34.20;42.70;;;;;;5095884;28;20047;-78
2021/07/22 08:31:43;;;;;;;13.90;12.50;;;34.20;41.80;;;;;;5095363;28;20051;-79
2021/07/22 08:34:09;;;;;;;15.18;13.07;;;34.30;41.50;;;;;;5095717;28;20490;-76
2021/07/22 08:36:34;;;;;;;15.30;13.18;;;34.60;42.00;;;;;;5095821;28;20059;-76
2021/07/22 08:39:00;;;;;;;12.63;11.30;;;34.60;41.80;;;;;;5084103;28;20040;-76
2021/07/22 08:41:26;;;;;;;12.10;10.90;;;34.70;40.50;;;;;;5086206;28;20097;-76
2021/07/22 08:43:52;;;;;;;13.00;11.70;;;34.60;39.90;;;;;;5104057;28;20036;-76
2021/07/22 08:46:18;;;;;;;14.30;11.95;;;34.50;40.10;;;;;;5104345;28;20077;-76
2021/07/22 08:48:45;;;;;;;14.18;11.57;;;34.40;41.20;;;;;;5103525;28;20020;-76
2021/07/22 08:51:11;;;;;;;12.77;11.43;;;34.60;41.50;;;;;;5085036;28;20521;-74
2021/07/22 08:53:37;;;;;;;14.88;11.48;;;34.80;41.20;;;;;;5095134;28;20173;-75
2021/07/22 08:56:07;;;;;;;13.95;12.15;;;34.80;40.20;;;;;;5094080;28;20072;-75
2021/07/22 08:58:33;;;;;;;13.43;10.57;;;34.70;39.20;;;;;;5078001;28;20032;-76
2021/07/22 09:01:01;;;;;;;14.10;12.70;;;34.50;40.40;;;;;;5094284;28;20028;-80
2021/07/22 09:03:27;;;;;;;12.55;10.68;;;34.80;40.10;;;;;;5095409;28;20024;-76
2021/07/22 09:05:53;;;;;;;12.95;11.65;;;34.90;39.80;;;;;;5077993;28;20086;-75
2021/07/22 09:08:18;;;;;;;12.77;11.48;;;35.00;40.00;;;;;;5077728;28;20028;-75
2021/07/22 09:11:07;;;;;;;13.68;12.27;;;34.70;40.00;;;;;;5077803;28;20561;-76
2021/07/22 09:13:33;;;;;;;14.90;11.98;;;34.30;40.60;;;;;;5096803;28;20539;-79
2021/07/22 09:15:59;;;;;;;13.52;12.20;;;34.40;41.10;;;;;;5096472;28;20024;-79
2021/07/22 09:18:28;;;;;;;12.40;11.10;;;34.40;40.60;;;;;;5095591;28;20387;-75
2021/07/22 09:20:54;;;;;;;11.88;10.02;;;34.30;40.70;;;;;;5094330;28;20456;-79
2021/07/22 09:23:24;;;;;;;11.25;10.15;;;34.40;41.00;;;;;;5095170;28;20048;-76
2021/07/22 09:25:51;;;;;;;14.35;11.80;;;34.50;40.60;;;;;;5095488;28;20028;-76
2021/07/22 09:28:19;;;;;;;14.05;12.55;;;34.70;40.50;;;;;;5095372;28;20111;-76
2021/07/22 09:31:02;;;;;;;13.65;12.25;;;34.70;39.80;;;;;;5094536;28;20357;-78
2021/07/22 09:33:43;;;;;;;14.30;12.45;;;34.80;40.60;;;;;;5093828;28;20047;-78
2021/07/22 09:36:32;;;;;;;13.73;11.95;;;35.00;40.30;;;;;;5094550;28;20448;-77
2021/07/22 09:39:18;;;;;;;12.65;11.13;;;35.40;39.50;;;;;;5094805;28;20031;-76
2021/07/22 09:41:44;;;;;;;12.05;10.45;;;35.10;39.70;;;;;;5095989;28;20032;-78
2021/07/22 09:44:30;;;;;;;11.32;10.13;;;34.50;40.30;;;;;;5095031;28;20036;-78
2021/07/22 09:46:56;;;;;;;14.27;11.55;;;33.80;41.00;;;;;;5095693;28;20028;-78
2021/07/22 09:49:39;;;;;;;13.88;12.35;;;33.30;41.90;;;;;;5095531;28;20052;-78
2021/07/22 09:52:25;;;;;;;13.05;10.43;;;32.80;42.50;;;;;;5095612;28;20460;-79
2021/07/22 09:54:51;;;;;;;14.30;11.32;;;32.80;43.20;;;;;;5095860;28;20024;-79
2021/07/22 09:57:22;;;;;;;12.27;10.38;;;33.40;42.80;;;;;;5094982;28;20057;-79
2021/07/22 09:59:50;;;;;;;12.00;10.75;;;33.60;42.00;;;;;;5078159;28;20035;-76
2021/07/22 10:02:21;;;;;;;13.18;10.18;;;33.40;42.50;;;;;;5095225;28;20039;-77
2021/07/22 10:05:07;;;;;;;12.30;10.85;;;33.00;42.60;;;;;;5094838;28;20024;-76
2021/07/22 10:07:35;;;;;;;12.07;10.02;;;32.50;43.10;;;;;;5093768;28;20032;-77
2021/07/22 10:10:03;;;;;;;12.13;10.77;;;32.30;44.30;;;;;;5094638;28;20028;-81
2021/07/22 10:12:30;;;;;;;10.90;9.77;;;32.50;44.10;;;;;;5094162;28;20076;-77
2021/07/22 10:14:57;;;;;;;12.85;10.60;;;32.80;42.50;;;;;;5076933;28;20036;-81
2021/07/22 10:17:26;;;;;;;11.77;9.77;;;32.80;43.00;;;;;;5092856;28;20024;-77
2021/07/22 10:19:58;;;;;;;13.98;9.60;;;33.20;42.80;;;;;;5093135;28;20025;-80
2021/07/22 10:22:25;;;;;;;13.35;9.63;;;33.60;42.50;;;;;;5076938;28;20031;-76
2021/07/22 10:24:53;;;;;;;11.02;9.30;;;33.60;42.00;;;;;;5089377;28;20052;-83
2021/07/22 10:27:20;;;;;;;10.75;9.48;;;33.40;42.50;;;;;;5095143;28;20117;-77
2021/07/22 10:29:46;;;;;;;20.50;10.20;;;33.00;42.20;;;;;;5076182;28;20024;-75
2021/07/22 10:32:19;;;;;;;15.20;10.25;;;32.60;43.10;;;;;;5093195;28;20020;-76
2021/07/22 10:34:48;;;;;;;11.65;9.18;;;32.70;42.30;;;;;;5094643;28;20517;-76
2021/07/22 10:37:18;;;;;;;12.98;10.55;;;32.80;43.40;;;;;;5092522;28;20475;-77
2021/07/22 10:40:05;;;;;;;15.50;8.88;;;32.90;41.90;;;;;;5093202;28;20051;-77
2021/07/22 10:42:48;;;;;;;11.38;9.70;;;32.90;42.90;;;;;;5094803;28;20032;-76
2021/07/22 10:45:19;;;;;;;12.35;9.85;;;32.70;43.40;;;;;;5093150;28;20039;-78
2021/07/22 10:48:04;;;;;;;12.27;9.25;;;32.60;43.40;;;;;;5095174;28;20038;-79
2021/07/22 10:50:42;;;;;;;10.18;9.07;;;31.80;44.70;;;;;;5094672;28;20021;-77
2021/07/22 10:53:09;;;;;;;9.27;8.35;;;31.50;45.50;;;;;;5093218;28;20042;-76
2021/07/22 10:55:45;;;;;;;10.52;7.75;;;31.20;45.30;;;;;;5077273;28;20082;-77
2021/07/22 10:58:34;;;;;;;9.43;8.23;;;31.10;45.70;;;;;;5093818;28;20081;-76
2021/07/22 11:01:02;;;;;;;9.45;8.40;;;31.10;45.20;;;;;;5093773;28;20463;-80
2021/07/22 11:03:37;;;;;;;11.23;8.82;;;31.20;45.20;;;;;;5093706;28;20035;-78
2021/07/22 11:06:06;;;;;;;12.40;8.68;;;31.70;44.10;;;;;;5094464;28;20025;-77
2021/07/22 11:08:36;;;;;;;11.40;9.27;;;31.90;43.10;;;;;;5097078;28;20070;-77
2021/07/22 11:11:03;;;;;;;8.35;7.55;;;32.00;42.70;;;;;;5097031;28;20128;-77
2021/07/22 11:13:35;;;;;;;9.68;7.32;;;32.20;43.60;;;;;;5096333;28;20035;-76
2021/07/22 11:16:31;;;;;;;;;;;32.40;43.10;;;;;;5097971;28;20103;-76
2021/07/22 11:19:02;;;;;;;8.80;7.07;;;32.50;43.20;;;;;;5105735;28;19907;-76
2021/07/22 11:21:35;;;;;;;8.52;7.30;;;32.60;42.50;;;;;;5097632;28;20026;-77
2021/07/22 11:24:20;;;;;;;10.10;7.15;;;32.90;42.90;;;;;;5079834;28;20039;-77
2021/07/22 11:26:50;;;;;;;10.20;7.25;;;33.10;42.20;;;;;;5096248;28;20048;-76
2021/07/22 11:29:17;;;;;;;9.38;7.15;;;33.30;41.70;;;;;;5097612;28;20062;-75
2021/07/22 11:31:44;;;;;;;6.25;5.65;;;33.50;41.40;;;;;;5097666;28;20038;-77
2021/07/22 11:34:10;;;;;;;9.43;6.63;;;33.50;40.90;;;;;;5096233;28;20028;-82
2021/07/22 11:36:36;;;;;;;8.77;6.88;;;33.60;40.10;;;;;;5096375;28;20043;-75
2021/07/22 11:39:03;;;;;;;9.30;6.53;;;33.70;40.00;;;;;;5096491;28;20360;-75
2021/07/22 11:41:29;;;;;;;7.53;6.38;;;33.90;40.50;;;;;;5096751;28;20059;-79
2021/07/22 11:43:56;;;;;;;7.95;6.35;;;34.00;40.40;;;;;;5097450;28;20039;-76
2021/07/22 11:46:40;;;;;;;7.70;6.18;;;33.60;40.50;;;;;;5095893;28;20028;-76
2021/07/22 11:49:07;;;;;;;7.80;6.35;;;33.50;41.10;;;;;;5096048;28;20436;-75
2021/07/22 11:51:33;;;;;;;6.45;5.55;;;33.40;41.10;;;;;;5096773;28;20036;-76
2021/07/22 11:53:59;;;;;;;8.15;6.95;;;33.00;41.00;;;;;;5096867;28;20472;-76
2021/07/22 11:56:33;;;;;;;6.35;5.75;;;32.40;41.20;;;;;;5095743;28;20111;-74
2021/07/22 11:59:00;;;;;;;7.22;6.15;;;32.10;42.10;;;;;;5095692;28;20116;-76
2021/07/22 12:01:26;;;;;;;6.32;5.57;;;32.10;42.50;;;;;;5096479;28;20559;-76
2021/07/22 12:03:57;;;;;;;6.75;5.55;;;32.40;42.30;;;;;;5096934;28;20031;-77
2021/07/22 12:06:24;;;;;;;9.10;6.03;;;32.80;40.80;;;;;;5095630;28;20028;-78
2021/07/22 12:09:08;;;;;;;8.82;5.57;;;33.00;41.20;;;;;;5096440;28;20040;-83
2021/07/22 12:11:58;;;;;;;6.35;5.70;;;33.20;39.80;;;;;;5096610;28;20024;-77
2021/07/22 12:14:36;;;;;;;6.18;5.53;;;33.60;39.50;;;;;;5095867;28;20047;-80
2021/07/22 12:17:03;;;;;;;7.82;5.55;;;33.70;39.90;;;;;;5095899;28;20078;-82
2021/07/22 12:19:31;;;;;;;8.40;5.18;;;33.70;40.30;;;;;;5095747;28;20047;-76
2021/07/22 12:22:19;;;;;;;5.38;4.40;;;33.80;40.40;;;;;;5097141;28;20027;-75
2021/07/22 12:24:45;;;;;;;5.38;4.75;;;33.90;39.40;;;;;;5096462;28;20075;-76
2021/07/22 12:27:25;;;;;;;5.20;4.50;;;34.10;38.60;;;;;;5096676;28;20495;-75
2021/07/22 12:29:51;;;;;;;4.95;4.45;;;34.00;39.00;;;;;;5094629;28;20064;-76
2021/07/22 12:32:17;;;;;;;4.70;4.30;;;33.90;39.70;;;;;;5077657;28;20063;-81
2021/07/22 12:34:43;;;;;;;6.38;5.20;;;33.70;39.60;;;;;;5094866;28;20028;-75